Belize City, Belize
Current Conditions -  °F | °C
As of 6:00 PM on Friday 24 Oct 2014 (Local Time) from MZBZ Reporting Station
Thunderstorm Thunderstorm  
Wind Chill: 77°   Ceiling: 4200
Heat Index: 78°   Visibility: 6mi
Dew Point: 75°   Wind: 5mph
Humidity: 94%   Direction: 360°N
Pressure: 29.84"   Gusts: NA
Location:  17.5°N, 88.19°W
Report Text: MZBZ 250000Z 36004KT 9999 -TSRA SCT010CB SCT015 BKN042 25/24 A2984 Q1010 NOSIG RMK CB/LTNG-NE
Loading
Personal Weather Stations






























Interactive Weather Map
Tropical Storm Tracking
New forecast layout! Learn more

10-Day Weather Forecast

Advertisements
Track Severe Weather on mobile